sensor_id;sensor_type;location;lat;lon;timestamp;pressure;altitude;pressure_sealevel;temperature;humidity
41250;BME280;26984;59.928;30.306;2023-04-22T00:00:05;101183.94;;;9.63;100.00
41250;BME280;26984;59.928;30.306;2023-04-22T00:02:34;101186.69;;;9.69;100.00
41250;BME280;26984;59.928;30.306;2023-04-22T00:05:02;101183.78;;;9.71;100.00
41250;BME280;26984;59.928;30.306;2023-04-22T00:07:29;101186.25;;;9.66;100.00
41250;BME280;26984;59.928;30.306;2023-04-22T00:09:57;101177.63;;;9.77;100.00
41250;BME280;26984;59.928;30.306;2023-04-22T00:12:24;101185.69;;;9.77;100.00
41250;BME280;26984;59.928;30.306;2023-04-22T00:14:52;101182.38;;;9.75;100.00
41250;BME280;26984;59.928;30.306;2023-04-22T00:17:20;101178.72;;;9.82;100.00
41250;BME280;26984;59.928;30.306;2023-04-22T00:19:48;101178.72;;;9.82;100.00
41250;BME280;26984;59.928;30.306;2023-04-22T00:22:15;101177.91;;;9.89;100.00
41250;BME280;26984;59.928;30.306;2023-04-22T00:24:43;101170.25;;;9.86;100.00
41250;BME280;26984;59.928;30.306;2023-04-22T00:27:10;101168.94;;;9.81;100.00
41250;BME280;26984;59.928;30.306;2023-04-22T00:29:38;101165.47;;;9.88;100.00
41250;BME280;26984;59.928;30.306;2023-04-22T00:32:05;101162.44;;;9.97;100.00
41250;BME280;26984;59.928;30.306;2023-04-22T00:34:34;101173.44;;;10.09;99.93
41250;BME280;26984;59.928;30.306;2023-04-22T00:37:01;101169.72;;;10.03;99.77
41250;BME280;26984;59.928;30.306;2023-04-22T00:39:29;101173.22;;;10.04;99.38
41250;BME280;26984;59.928;30.306;2023-04-22T00:41:57;101176.75;;;10.04;98.96
41250;BME280;26984;59.928;30.306;2023-04-22T00:44:24;101180.50;;;10.10;98.84
41250;BME280;26984;59.928;30.306;2023-04-22T00:46:52;101171.09;;;9.93;99.43
41250;BME280;26984;59.928;30.306;2023-04-22T00:49:20;101167.78;;;9.91;99.75
41250;BME280;26984;59.928;30.306;2023-04-22T00:51:49;101158.41;;;9.80;99.77
41250;BME280;26984;59.928;30.306;2023-04-22T00:54:17;101160.97;;;9.95;100.00
41250;BME280;26984;59.928;30.306;2023-04-22T00:56:45;101168.25;;;10.01;99.93
41250;BME280;26984;59.928;30.306;2023-04-22T00:59:12;101163.56;;;9.81;99.98
41250;BME280;26984;59.928;30.306;2023-04-22T01:01:40;101155.94;;;9.85;100.00
41250;BME280;26984;59.928;30.306;2023-04-22T01:04:08;101154.53;;;9.89;99.81
41250;BME280;26984;59.928;30.306;2023-04-22T01:06:37;101147.00;;;9.78;99.90
41250;BME280;26984;59.928;30.306;2023-04-22T01:09:07;101151.97;;;9.81;100.00
41250;BME280;26984;59.928;30.306;2023-04-22T01:11:34;101146.03;;;9.86;99.70
41250;BME280;26984;59.928;30.306;2023-04-22T01:14:02;101148.03;;;9.77;99.72
41250;BME280;26984;59.928;30.306;2023-04-22T01:16:30;101148.03;;;9.77;99.59
41250;BME280;26984;59.928;30.306;2023-04-22T01:19:00;101142.91;;;9.82;100.00
41250;BME280;26984;59.928;30.306;2023-04-22T01:21:27;101141.91;;;9.90;98.16
41250;BME280;26984;59.928;30.306;2023-04-22T01:23:59;101141.69;;;9.91;98.20
41250;BME280;26984;59.928;30.306;2023-04-22T01:26:27;101151.41;;;9.86;98.18
41250;BME280;26984;59.928;30.306;2023-04-22T01:28:54;101157.78;;;9.84;98.50
41250;BME280;26984;59.928;30.306;2023-04-22T01:31:22;101151.16;;;9.80;98.96
41250;BME280;26984;59.928;30.306;2023-04-22T01:33:49;101142.41;;;9.72;99.27
41250;BME280;26984;59.928;30.306;2023-04-22T01:36:17;101142.84;;;9.75;98.66
41250;BME280;26984;59.928;30.306;2023-04-22T01:38:45;101147.25;;;9.83;98.06
41250;BME280;26984;59.928;30.306;2023-04-22T01:41:14;101136.88;;;9.80;97.73
41250;BME280;26984;59.928;30.306;2023-04-22T01:43:42;101139.34;;;9.81;96.88
41250;BME280;26984;59.928;30.306;2023-04-22T01:46:10;101135.56;;;9.69;97.55
41250;BME280;26984;59.928;30.306;2023-04-22T01:48:38;101132.88;;;9.69;97.44
41250;BME280;26984;59.928;30.306;2023-04-22T01:51:06;101129.31;;;9.62;97.86
41250;BME280;26984;59.928;30.306;2023-04-22T01:53:35;101134.53;;;9.70;97.45
41250;BME280;26984;59.928;30.306;2023-04-22T01:56:03;101131.38;;;9.60;97.74
41250;BME280;26984;59.928;30.306;2023-04-22T01:58:32;101122.91;;;9.63;97.80
41250;BME280;26984;59.928;30.306;2023-04-22T02:01:04;101124.81;;;9.69;97.88
41250;BME280;26984;59.928;30.306;2023-04-22T02:03:31;101123.78;;;9.70;98.52
41250;BME280;26984;59.928;30.306;2023-04-22T02:05:59;101120.66;;;9.67;98.31
41250;BME280;26984;59.928;30.306;2023-04-22T02:08:26;101130.44;;;9.81;98.20
41250;BME280;26984;59.928;30.306;2023-04-22T02:10:54;101128.72;;;9.67;98.82
41250;BME280;26984;59.928;30.306;2023-04-22T02:13:21;101122.03;;;9.56;99.01
41250;BME280;26984;59.928;30.306;2023-04-22T02:15:50;101121.03;;;9.57;99.75
41250;BME280;26984;59.928;30.306;2023-04-22T02:18:17;101132.66;;;9.64;100.00
41250;BME280;26984;59.928;30.306;2023-04-22T02:20:45;101124.16;;;9.61;99.05
41250;BME280;26984;59.928;30.306;2023-04-22T02:23:12;101122.03;;;9.56;99.62
41250;BME280;26984;59.928;30.306;2023-04-22T02:25:46;101130.06;;;9.49;100.00
41250;BME280;26984;59.928;30.306;2023-04-22T02:28:15;101128.19;;;9.43;99.41
41250;BME280;26984;59.928;30.306;2023-04-22T02:30:43;101134.81;;;9.47;98.73
41250;BME280;26984;59.928;30.306;2023-04-22T02:33:12;101126.88;;;9.39;98.97
41250;BME280;26984;59.928;30.306;2023-04-22T02:35:40;101133.00;;;9.26;99.83
41250;BME280;26984;59.928;30.306;2023-04-22T02:38:07;101129.50;;;9.26;99.70
41250;BME280;26984;59.928;30.306;2023-04-22T02:40:35;101129.00;;;9.16;99.68
41250;BME280;26984;59.928;30.306;2023-04-22T02:43:02;101127.13;;;9.16;100.00
41250;BME280;26984;59.928;30.306;2023-04-22T02:45:30;101134.16;;;9.17;99.59
41250;BME280;26984;59.928;30.306;2023-04-22T02:47:57;101127.91;;;9.10;99.16
41250;BME280;26984;59.928;30.306;2023-04-22T02:50:26;101127.09;;;9.09;99.87
41250;BME280;26984;59.928;30.306;2023-04-22T02:52:54;101127.13;;;9.16;99.72
41250;BME280;26984;59.928;30.306;2023-04-22T02:55:21;101125.28;;;9.17;98.65
41250;BME280;26984;59.928;30.306;2023-04-22T02:57:49;101126.94;;;9.18;99.63
41250;BME280;26984;59.928;30.306;2023-04-22T03:00:17;101114.53;;;9.17;99.39
41250;BME280;26984;59.928;30.306;2023-04-22T03:02:44;101119.75;;;9.25;99.31
41250;BME280;26984;59.928;30.306;2023-04-22T03:05:14;101114.41;;;9.31;98.51
41250;BME280;26984;59.928;30.306;2023-04-22T03:07:42;101116.78;;;9.41;97.46
41250;BME280;26984;59.928;30.306;2023-04-22T03:10:14;101120.06;;;9.37;97.34
41250;BME280;26984;59.928;30.306;2023-04-22T03:12:41;101116.72;;;9.34;97.43
41250;BME280;26984;59.928;30.306;2023-04-22T03:15:09;101117.41;;;9.43;97.51
41250;BME280;26984;59.928;30.306;2023-04-22T03:17:36;101119.47;;;9.41;97.83
41250;BME280;26984;59.928;30.306;2023-04-22T03:20:09;101129.22;;;9.49;98.96
41250;BME280;26984;59.928;30.306;2023-04-22T03:22:36;101116.59;;;9.49;98.79
41250;BME280;26984;59.928;30.306;2023-04-22T03:25:07;101125.31;;;9.51;99.56
41250;BME280;26984;59.928;30.306;2023-04-22T03:27:35;101125.28;;;9.45;100.00
41250;BME280;26984;59.928;30.306;2023-04-22T03:30:03;101124.66;;;9.43;100.00
41250;BME280;26984;59.928;30.306;2023-04-22T03:32:31;101120.66;;;9.39;100.00
41250;BME280;26984;59.928;30.306;2023-04-22T03:35:12;101124.75;;;9.28;100.00
41250;BME280;26984;59.928;30.306;2023-04-22T03:37:40;101124.13;;;9.26;100.00
41250;BME280;26984;59.928;30.306;2023-04-22T03:40:13;101114.56;;;9.23;100.00
41250;BME280;26984;59.928;30.306;2023-04-22T03:42:41;101118.88;;;9.18;100.00
41250;BME280;26984;59.928;30.306;2023-04-22T03:45:08;101115.00;;;9.27;100.00
41250;BME280;26984;59.928;30.306;2023-04-22T03:47:41;101120.19;;;9.28;100.00
41250;BME280;26984;59.928;30.306;2023-04-22T03:50:19;101117.25;;;9.23;100.00
41250;BME280;26984;59.928;30.306;2023-04-22T03:52:48;101124.75;;;9.28;100.00
41250;BME280;26984;59.928;30.306;2023-04-22T03:55:20;101125.00;;;9.33;100.00
41250;BME280;26984;59.928;30.306;2023-04-22T03:57:51;101120.63;;;9.32;100.00
41250;BME280;26984;59.928;30.306;2023-04-22T04:00:19;101118.78;;;9.32;100.00
41250;BME280;26984;59.928;30.306;2023-04-22T04:02:54;101117.38;;;9.37;100.00
41250;BME280;26984;59.928;30.306;2023-04-22T04:05:25;101117.97;;;9.39;100.00
41250;BME280;26984;59.928;30.306;2023-04-22T04:07:53;101118.81;;;9.39;100.00
41250;BME280;26984;59.928;30.306;2023-04-22T04:10:24;101116.59;;;9.43;100.00
41250;BME280;26984;59.928;30.306;2023-04-22T04:12:54;101117.22;;;9.45;100.00
41250;BME280;26984;59.928;30.306;2023-04-22T04:15:23;101118.69;;;9.47;99.93
41250;BME280;26984;59.928;30.306;2023-04-22T04:17:51;101113.75;;;9.51;99.84
41250;BME280;26984;59.928;30.306;2023-04-22T04:20:21;101114.78;;;9.50;99.48
41250;BME280;26984;59.928;30.306;2023-04-22T04:22:49;101113.09;;;9.49;99.61
41250;BME280;26984;59.928;30.306;2023-04-22T04:25:16;101115.94;;;9.41;100.00
41250;BME280;26984;59.928;30.306;2023-04-22T04:27:47;101112.03;;;9.43;99.90
41250;BME280;26984;59.928;30.306;2023-04-22T04:30:17;101108.88;;;9.33;100.00
41250;BME280;26984;59.928;30.306;2023-04-22T04:32:51;101112.78;;;9.30;100.00
41250;BME280;26984;59.928;30.306;2023-04-22T04:35:19;101103.28;;;9.34;100.00
41250;BME280;26984;59.928;30.306;2023-04-22T04:37:51;101105.19;;;9.41;99.83
41250;BME280;26984;59.928;30.306;2023-04-22T04:40:19;101110.19;;;9.44;99.41
41250;BME280;26984;59.928;30.306;2023-04-22T04:43:01;101095.53;;;9.53;98.76
41250;BME280;26984;59.928;30.306;2023-04-22T04:45:38;101096.00;;;9.63;98.14
41250;BME280;26984;59.928;30.306;2023-04-22T04:48:12;101095.66;;;9.73;96.91
41250;BME280;26984;59.928;30.306;2023-04-22T04:50:42;101097.53;;;9.79;96.39
41250;BME280;26984;59.928;30.306;2023-04-22T04:53:10;101097.69;;;9.71;96.79
41250;BME280;26984;59.928;30.306;2023-04-22T04:55:41;101100.25;;;9.79;96.52
41250;BME280;26984;59.928;30.306;2023-04-22T04:58:20;101097.97;;;9.82;95.50
41250;BME280;26984;59.928;30.306;2023-04-22T05:00:59;101091.78;;;9.82;95.62
41250;BME280;26984;59.928;30.306;2023-04-22T05:03:26;101095.03;;;9.77;95.53
41250;BME280;26984;59.928;30.306;2023-04-22T05:05:54;101095.31;;;9.89;94.43
41250;BME280;26984;59.928;30.306;2023-04-22T05:08:22;101092.78;;;9.81;94.99
41250;BME280;26984;59.928;30.306;2023-04-22T05:10:52;101088.38;;;9.67;94.55
41250;BME280;26984;59.928;30.306;2023-04-22T05:13:22;101094.13;;;9.64;95.93
41250;BME280;26984;59.928;30.306;2023-04-22T05:15:50;101096.22;;;9.62;96.94
41250;BME280;26984;59.928;30.306;2023-04-22T05:18:18;101094.56;;;9.61;96.75
41250;BME280;26984;59.928;30.306;2023-04-22T05:20:46;101091.63;;;9.55;97.61
41250;BME280;26984;59.928;30.306;2023-04-22T05:23:15;101091.41;;;9.50;97.75
41250;BME280;26984;59.928;30.306;2023-04-22T05:25:42;101098.25;;;9.59;96.91
41250;BME280;26984;59.928;30.306;2023-04-22T05:28:12;101094.53;;;9.54;97.06
41250;BME280;26984;59.928;30.306;2023-04-22T05:30:47;101095.59;;;9.66;96.05
41250;BME280;26984;59.928;30.306;2023-04-22T05:33:15;101087.50;;;9.59;96.66
41250;BME280;26984;59.928;30.306;2023-04-22T05:35:43;101084.66;;;9.74;95.74
41250;BME280;26984;59.928;30.306;2023-04-22T05:38:11;101086.75;;;9.72;95.73
41250;BME280;26984;59.928;30.306;2023-04-22T05:40:40;101086.81;;;9.86;95.35
41250;BME280;26984;59.928;30.306;2023-04-22T05:43:10;101087.06;;;9.97;95.22
41250;BME280;26984;59.928;30.306;2023-04-22T05:45:40;101081.31;;;10.07;94.06
41250;BME280;26984;59.928;30.306;2023-04-22T05:48:12;101082.38;;;10.19;93.32
41250;BME280;26984;59.928;30.306;2023-04-22T05:50:49;101088.84;;;10.31;92.20
41250;BME280;26984;59.928;30.306;2023-04-22T05:53:17;101083.28;;;10.40;91.51
41250;BME280;26984;59.928;30.306;2023-04-22T05:55:44;101085.34;;;10.38;90.78
41250;BME280;26984;59.928;30.306;2023-04-22T05:58:12;101090.31;;;10.34;91.22
41250;BME280;26984;59.928;30.306;2023-04-22T06:00:48;101084.75;;;10.36;91.02
41250;BME280;26984;59.928;30.306;2023-04-22T06:03:40;101080.16;;;10.36;90.41
41250;BME280;26984;59.928;30.306;2023-04-22T06:06:08;101078.91;;;10.39;90.18
41250;BME280;26984;59.928;30.306;2023-04-22T06:08:35;101082.66;;;10.44;89.65
41250;BME280;26984;59.928;30.306;2023-04-22T06:11:03;101078.31;;;10.37;88.52
41250;BME280;26984;59.928;30.306;2023-04-22T06:13:34;101079.53;;;10.34;88.67
41250;BME280;26984;59.928;30.306;2023-04-22T06:16:01;101080.34;;;10.35;88.40
41250;BME280;26984;59.928;30.306;2023-04-22T06:18:30;101085.31;;;10.31;89.16
41250;BME280;26984;59.928;30.306;2023-04-22T06:21:00;101083.88;;;10.35;88.15
41250;BME280;26984;59.928;30.306;2023-04-22T06:23:28;101083.69;;;10.37;87.91
41250;BME280;26984;59.928;30.306;2023-04-22T06:25:56;101085.28;;;10.24;87.73
41250;BME280;26984;59.928;30.306;2023-04-22T06:28:24;101085.69;;;10.21;88.91
41250;BME280;26984;59.928;30.306;2023-04-22T06:30:55;101091.97;;;10.35;88.26
41250;BME280;26984;59.928;30.306;2023-04-22T06:33:23;101082.88;;;10.43;87.51
41250;BME280;26984;59.928;30.306;2023-04-22T06:35:50;101079.38;;;10.55;85.67
41250;BME280;26984;59.928;30.306;2023-04-22T06:38:19;101076.88;;;10.47;86.28
41250;BME280;26984;59.928;30.306;2023-04-22T06:41:12;101074.59;;;10.44;86.57
41250;BME280;26984;59.928;30.306;2023-04-22T06:43:43;101078.75;;;10.47;86.87
41250;BME280;26984;59.928;30.306;2023-04-22T06:46:42;101077.50;;;10.56;86.29
41250;BME280;26984;59.928;30.306;2023-04-22T06:49:35;101071.72;;;10.72;85.60
41250;BME280;26984;59.928;30.306;2023-04-22T06:52:18;101072.78;;;10.78;85.46
41250;BME280;26984;59.928;30.306;2023-04-22T06:54:48;101067.16;;;10.86;84.26
41250;BME280;26984;59.928;30.306;2023-04-22T06:57:15;101069.44;;;10.96;83.16
41250;BME280;26984;59.928;30.306;2023-04-22T06:59:43;101069.88;;;10.93;82.12
41250;BME280;26984;59.928;30.306;2023-04-22T07:02:10;101065.50;;;10.72;83.48
41250;BME280;26984;59.928;30.306;2023-04-22T07:04:39;101067.97;;;10.73;83.63
41250;BME280;26984;59.928;30.306;2023-04-22T07:07:07;101061.38;;;10.83;83.01
41250;BME280;26984;59.928;30.306;2023-04-22T07:09:34;101069.84;;;10.79;83.12
41250;BME280;26984;59.928;30.306;2023-04-22T07:12:04;101060.94;;;10.86;82.68
41250;BME280;26984;59.928;30.306;2023-04-22T07:14:31;101060.72;;;11.00;82.02
41250;BME280;26984;59.928;30.306;2023-04-22T07:16:59;101060.09;;;11.05;80.92
41250;BME280;26984;59.928;30.306;2023-04-22T07:19:26;101065.25;;;11.13;80.32
41250;BME280;26984;59.928;30.306;2023-04-22T07:21:54;101064.25;;;11.14;80.63
41250;BME280;26984;59.928;30.306;2023-04-22T07:24:22;101061.31;;;11.16;80.18
41250;BME280;26984;59.928;30.306;2023-04-22T07:26:49;101054.47;;;11.20;80.02
41250;BME280;26984;59.928;30.306;2023-04-22T07:29:18;101049.69;;;11.29;78.93
41250;BME280;26984;59.928;30.306;2023-04-22T07:31:46;101049.47;;;11.30;78.98
41250;BME280;26984;59.928;30.306;2023-04-22T07:34:13;101052.16;;;11.43;78.00
41250;BME280;26984;59.928;30.306;2023-04-22T07:36:42;101046.31;;;11.53;77.74
41250;BME280;26984;59.928;30.306;2023-04-22T07:39:09;101048.34;;;11.71;76.34
41250;BME280;26984;59.928;30.306;2023-04-22T07:41:37;101042.47;;;11.81;73.99
41250;BME280;26984;59.928;30.306;2023-04-22T07:44:04;101040.41;;;11.76;74.53
41250;BME280;26984;59.928;30.306;2023-04-22T07:46:33;101038.34;;;11.85;73.27
41250;BME280;26984;59.928;30.306;2023-04-22T07:49:01;101036.88;;;11.82;74.69
41250;BME280;26984;59.928;30.306;2023-04-22T07:51:28;101040.59;;;11.88;74.06
41250;BME280;26984;59.928;30.306;2023-04-22T07:53:56;101034.94;;;12.03;73.45
41250;BME280;26984;59.928;30.306;2023-04-22T07:56:23;101036.28;;;12.18;73.03
41250;BME280;26984;59.928;30.306;2023-04-22T07:58:51;101036.25;;;12.25;73.29
41250;BME280;26984;59.928;30.306;2023-04-22T08:01:19;101033.66;;;12.37;72.23
41250;BME280;26984;59.928;30.306;2023-04-22T08:03:48;101034.88;;;12.41;71.92
41250;BME280;26984;59.928;30.306;2023-04-22T08:06:15;101031.97;;;12.42;71.29
41250;BME280;26984;59.928;30.306;2023-04-22T08:08:43;101030.41;;;12.60;70.77
41250;BME280;26984;59.928;30.306;2023-04-22T08:11:11;101041.66;;;12.57;70.90
41250;BME280;26984;59.928;30.306;2023-04-22T08:13:38;101030.41;;;12.60;71.04
41250;BME280;26984;59.928;30.306;2023-04-22T08:16:06;101045.66;;;12.73;71.48
41250;BME280;26984;59.928;30.306;2023-04-22T08:18:34;101037.06;;;12.82;70.50
41250;BME280;26984;59.928;30.306;2023-04-22T08:21:02;101040.09;;;12.92;70.07
41250;BME280;26984;59.928;30.306;2023-04-22T08:23:30;101031.63;;;13.07;68.30
41250;BME280;26984;59.928;30.306;2023-04-22T08:25:58;101044.72;;;13.10;68.42
41250;BME280;26984;59.928;30.306;2023-04-22T08:28:25;101039.44;;;13.15;68.01
41250;BME280;26984;59.928;30.306;2023-04-22T08:30:53;101038.56;;;13.22;66.99
41250;BME280;26984;59.928;30.306;2023-04-22T08:33:20;101043.31;;;13.26;66.69
41250;BME280;26984;59.928;30.306;2023-04-22T08:35:48;101035.63;;;13.23;67.22
41250;BME280;26984;59.928;30.306;2023-04-22T08:38:17;101031.75;;;13.37;65.94
41250;BME280;26984;59.928;30.306;2023-04-22T08:40:44;101030.94;;;13.37;65.98
41250;BME280;26984;59.928;30.306;2023-04-22T08:43:12;101037.09;;;13.44;66.13
41250;BME280;26984;59.928;30.306;2023-04-22T08:45:40;101029.53;;;13.53;66.11
41250;BME280;26984;59.928;30.306;2023-04-22T08:48:08;101032.59;;;13.56;65.65
41250;BME280;26984;59.928;30.306;2023-04-22T08:50:36;101019.47;;;13.41;66.58
41250;BME280;26984;59.928;30.306;2023-04-22T08:53:04;101026.56;;;13.54;67.08
41250;BME280;26984;59.928;30.306;2023-04-22T08:55:33;101032.13;;;13.41;67.18
41250;BME280;26984;59.928;30.306;2023-04-22T08:58:01;101031.69;;;13.26;68.61
41250;BME280;26984;59.928;30.306;2023-04-22T09:00:31;101024.38;;;13.26;69.24
41250;BME280;26984;59.928;30.306;2023-04-22T09:03:00;101035.97;;;13.33;69.23
41250;BME280;26984;59.928;30.306;2023-04-22T09:05:28;101025.53;;;13.37;69.05
41250;BME280;26984;59.928;30.306;2023-04-22T09:07:58;101019.53;;;13.35;68.88
41250;BME280;26984;59.928;30.306;2023-04-22T09:10:26;101028.78;;;13.27;69.38
41250;BME280;26984;59.928;30.306;2023-04-22T09:12:55;101033.13;;;13.28;70.22
41250;BME280;26984;59.928;30.306;2023-04-22T09:15:23;101033.34;;;13.27;70.54
41250;BME280;26984;59.928;30.306;2023-04-22T09:17:50;101031.63;;;13.32;70.26
41250;BME280;26984;59.928;30.306;2023-04-22T09:20:18;101029.63;;;13.21;71.00
41250;BME280;26984;59.928;30.306;2023-04-22T09:22:46;101038.25;;;13.11;71.77
41250;BME280;26984;59.928;30.306;2023-04-22T09:25:15;101028.50;;;13.10;72.18
41250;BME280;26984;59.928;30.306;2023-04-22T09:27:44;101028.19;;;13.18;71.24
41250;BME280;26984;59.928;30.306;2023-04-22T09:30:15;101028.38;;;13.24;72.14
41250;BME280;26984;59.928;30.306;2023-04-22T09:32:50;101013.56;;;13.26;71.99
41250;BME280;26984;59.928;30.306;2023-04-22T09:35:22;101013.13;;;13.29;71.85
41250;BME280;26984;59.928;30.306;2023-04-22T09:37:50;101010.03;;;13.44;70.91
41250;BME280;26984;59.928;30.306;2023-04-22T09:40:17;101015.31;;;13.57;69.94
41250;BME280;26984;59.928;30.306;2023-04-22T09:42:48;101011.00;;;13.68;69.65
41250;BME280;26984;59.928;30.306;2023-04-22T09:45:28;101002.84;;;13.86;66.85
41250;BME280;26984;59.928;30.306;2023-04-22T09:47:56;101003.28;;;14.02;66.17
41250;BME280;26984;59.928;30.306;2023-04-22T09:50:26;100996.50;;;14.23;64.44
41250;BME280;26984;59.928;30.306;2023-04-22T09:52:54;100996.53;;;14.34;61.64
41250;BME280;26984;59.928;30.306;2023-04-22T09:55:22;100990.16;;;14.41;59.73
41250;BME280;26984;59.928;30.306;2023-04-22T09:57:51;100995.00;;;14.38;59.26
41250;BME280;26984;59.928;30.306;2023-04-22T10:00:19;100990.16;;;14.41;59.58
41250;BME280;26984;59.928;30.306;2023-04-22T10:02:49;100985.63;;;14.53;58.68
41250;BME280;26984;59.928;30.306;2023-04-22T10:05:16;100996.03;;;14.68;58.99
41250;BME280;26984;59.928;30.306;2023-04-22T10:07:44;100983.66;;;14.83;55.67
41250;BME280;26984;59.928;30.306;2023-04-22T10:10:12;100985.16;;;14.79;56.30
41250;BME280;26984;59.928;30.306;2023-04-22T10:12:39;100975.03;;;14.87;56.17
41250;BME280;26984;59.928;30.306;2023-04-22T10:15:07;100981.88;;;14.89;58.26
41250;BME280;26984;59.928;30.306;2023-04-22T10:17:36;100977.28;;;14.78;60.24
41250;BME280;26984;59.928;30.306;2023-04-22T10:20:08;100980.72;;;14.73;62.29
41250;BME280;26984;59.928;30.306;2023-04-22T10:22:39;100977.41;;;14.59;62.50
41250;BME280;26984;59.928;30.306;2023-04-22T10:25:11;100973.91;;;14.41;63.55
41250;BME280;26984;59.928;30.306;2023-04-22T10:27:39;100978.84;;;14.32;64.42
41250;BME280;26984;59.928;30.306;2023-04-22T10:30:08;100979.19;;;14.24;64.21
41250;BME280;26984;59.928;30.306;2023-04-22T10:32:36;100974.09;;;14.16;65.71
41250;BME280;26984;59.928;30.306;2023-04-22T10:35:09;100970.09;;;14.18;64.53
41250;BME280;26984;59.928;30.306;2023-04-22T10:37:40;100973.25;;;14.03;65.42
41250;BME280;26984;59.928;30.306;2023-04-22T10:40:08;100966.34;;;13.89;66.18
41250;BME280;26984;59.928;30.306;2023-04-22T10:42:40;100972.47;;;13.84;66.87
41250;BME280;26984;59.928;30.306;2023-04-22T10:45:11;100961.72;;;13.78;67.46
41250;BME280;26984;59.928;30.306;2023-04-22T10:47:39;100961.72;;;13.78;67.84
41250;BME280;26984;59.928;30.306;2023-04-22T10:50:19;100960.91;;;13.59;68.61
41250;BME280;26984;59.928;30.306;2023-04-22T10:52:49;100965.13;;;13.55;69.46
41250;BME280;26984;59.928;30.306;2023-04-22T10:55:18;100957.94;;;13.49;70.21
41250;BME280;26984;59.928;30.306;2023-04-22T10:57:46;100960.34;;;13.57;70.24
41250;BME280;26984;59.928;30.306;2023-04-22T11:00:25;100964.63;;;13.46;70.47
41250;BME280;26984;59.928;30.306;2023-04-22T11:03:07;100974.78;;;13.51;70.23
41250;BME280;26984;59.928;30.306;2023-04-22T11:05:38;100966.06;;;13.49;69.93
41250;BME280;26984;59.928;30.306;2023-04-22T11:08:06;100965.75;;;13.20;71.43
41250;BME280;26984;59.928;30.306;2023-04-22T11:10:35;100958.00;;;13.05;72.12
41250;BME280;26984;59.928;30.306;2023-04-22T11:13:06;100958.16;;;13.10;72.06
41250;BME280;26984;59.928;30.306;2023-04-22T11:15:34;100956.22;;;13.17;71.60
41250;BME280;26984;59.928;30.306;2023-04-22T11:18:02;100955.16;;;13.18;71.83
41250;BME280;26984;59.928;30.306;2023-04-22T11:20:30;100955.94;;;13.26;71.48
41250;BME280;26984;59.928;30.306;2023-04-22T11:22:58;100958.69;;;13.37;71.11
41250;BME280;26984;59.928;30.306;2023-04-22T11:25:26;100958.16;;;13.47;70.07
41250;BME280;26984;59.928;30.306;2023-04-22T11:27:53;100956.66;;;13.51;70.07
41250;BME280;26984;59.928;30.306;2023-04-22T11:30:21;100954.69;;;13.58;69.72
41250;BME280;26984;59.928;30.306;2023-04-22T11:32:49;100949.19;;;13.65;68.54
41250;BME280;26984;59.928;30.306;2023-04-22T11:35:18;100947.13;;;13.79;68.69
41250;BME280;26984;59.928;30.306;2023-04-22T11:37:46;100951.13;;;13.76;68.18
41250;BME280;26984;59.928;30.306;2023-04-22T11:40:16;100951.97;;;13.77;68.57
41250;BME280;26984;59.928;30.306;2023-04-22T11:42:44;100943.69;;;13.72;69.16
41250;BME280;26984;59.928;30.306;2023-04-22T11:45:12;100929.09;;;13.73;69.52
41250;BME280;26984;59.928;30.306;2023-04-22T11:47:39;100939.91;;;13.73;69.05
41250;BME280;26984;59.928;30.306;2023-04-22T11:50:08;100929.72;;;13.86;68.53
41250;BME280;26984;59.928;30.306;2023-04-22T11:52:43;100926.56;;;13.89;68.73
41250;BME280;26984;59.928;30.306;2023-04-22T11:55:11;100927.28;;;13.97;67.55
41250;BME280;26984;59.928;30.306;2023-04-22T11:57:40;100929.06;;;14.03;67.55
41250;BME280;26984;59.928;30.306;2023-04-22T12:00:10;100919.06;;;14.03;67.44
41250;BME280;26984;59.928;30.306;2023-04-22T12:02:39;100925.31;;;14.16;66.70
41250;BME280;26984;59.928;30.306;2023-04-22T12:05:08;100924.38;;;14.22;66.32
41250;BME280;26984;59.928;30.306;2023-04-22T12:07:36;100921.22;;;14.25;65.85
41250;BME280;26984;59.928;30.306;2023-04-22T12:10:04;100921.69;;;14.33;65.75
41250;BME280;26984;59.928;30.306;2023-04-22T12:12:35;100919.34;;;14.25;66.05
41250;BME280;26984;59.928;30.306;2023-04-22T12:15:07;100923.09;;;14.24;65.33
41250;BME280;26984;59.928;30.306;2023-04-22T12:17:35;100921.31;;;14.18;65.59
41250;BME280;26984;59.928;30.306;2023-04-22T12:20:03;100913.91;;;14.25;64.64
41250;BME280;26984;59.928;30.306;2023-04-22T12:22:32;100919.34;;;14.37;61.34
41250;BME280;26984;59.928;30.306;2023-04-22T12:25:00;100917.09;;;14.22;61.61
41250;BME280;26984;59.928;30.306;2023-04-22T12:27:28;100902.03;;;14.38;61.04
41250;BME280;26984;59.928;30.306;2023-04-22T12:29:56;100918.16;;;14.33;60.94
41250;BME280;26984;59.928;30.306;2023-04-22T12:32:25;100909.66;;;14.29;60.60
41250;BME280;26984;59.928;30.306;2023-04-22T12:34:53;100913.91;;;14.25;60.64
41250;BME280;26984;59.928;30.306;2023-04-22T12:37:21;100899.78;;;14.23;60.65
41250;BME280;26984;59.928;30.306;2023-04-22T12:39:48;100913.09;;;14.36;59.96
41250;BME280;26984;59.928;30.306;2023-04-22T12:42:16;100915.22;;;14.34;59.71
41250;BME280;26984;59.928;30.306;2023-04-22T12:44:43;100903.78;;;14.21;59.38
41250;BME280;26984;59.928;30.306;2023-04-22T12:47:12;100903.78;;;14.21;59.75
41250;BME280;26984;59.928;30.306;2023-04-22T12:49:41;100909.00;;;14.34;59.15
41250;BME280;26984;59.928;30.306;2023-04-22T12:52:09;100914.16;;;14.35;58.47